sensor_id;sensor_type;location;lat;lon;timestamp;temperature;humidity
52963;DHT22;38827;53.024;6.596;2023-04-09T00:01:44;9.10;75.10
52963;DHT22;38827;53.024;6.596;2023-04-09T00:04:27;9.10;75.20
52963;DHT22;38827;53.024;6.596;2023-04-09T00:07:07;9.00;75.40
52963;DHT22;38827;53.024;6.596;2023-04-09T00:09:40;9.00;75.40
52963;DHT22;38827;53.024;6.596;2023-04-09T00:12:12;9.00;75.60
52963;DHT22;38827;53.024;6.596;2023-04-09T00:14:49;9.00;75.60
52963;DHT22;38827;53.024;6.596;2023-04-09T00:17:23;9.00;75.80
52963;DHT22;38827;53.024;6.596;2023-04-09T00:19:52;9.00;76.10
52963;DHT22;38827;53.024;6.596;2023-04-09T00:22:20;8.90;76.00
52963;DHT22;38827;53.024;6.596;2023-04-09T00:25:00;9.00;76.00
52963;DHT22;38827;53.024;6.596;2023-04-09T00:27:41;8.90;76.00
52963;DHT22;38827;53.024;6.596;2023-04-09T00:30:26;8.90;76.10
52963;DHT22;38827;53.024;6.596;2023-04-09T00:32:57;8.90;76.30
52963;DHT22;38827;53.024;6.596;2023-04-09T00:35:31;8.90;76.40
52963;DHT22;38827;53.024;6.596;2023-04-09T00:38:30;8.90;76.50
52963;DHT22;38827;53.024;6.596;2023-04-09T00:41:07;8.90;76.40
52963;DHT22;38827;53.024;6.596;2023-04-09T00:43:44;8.90;76.60
52963;DHT22;38827;53.024;6.596;2023-04-09T00:46:25;8.80;76.70
52963;DHT22;38827;53.024;6.596;2023-04-09T00:49:21;8.90;76.80
52963;DHT22;38827;53.024;6.596;2023-04-09T00:52:01;8.90;76.80
52963;DHT22;38827;53.024;6.596;2023-04-09T00:54:44;8.90;76.80
52963;DHT22;38827;53.024;6.596;2023-04-09T00:57:19;8.90;77.00
52963;DHT22;38827;53.024;6.596;2023-04-09T00:59:58;8.80;77.00
52963;DHT22;38827;53.024;6.596;2023-04-09T01:02:34;8.80;77.00
52963;DHT22;38827;53.024;6.596;2023-04-09T01:05:36;8.80;77.10
52963;DHT22;38827;53.024;6.596;2023-04-09T01:08:46;8.80;77.00
52963;DHT22;38827;53.024;6.596;2023-04-09T01:11:40;8.80;77.10
52963;DHT22;38827;53.024;6.596;2023-04-09T01:17:28;8.80;77.00
52963;DHT22;38827;53.024;6.596;2023-04-09T01:20:04;8.70;77.20
52963;DHT22;38827;53.024;6.596;2023-04-09T01:28:46;8.70;77.40
52963;DHT22;38827;53.024;6.596;2023-04-09T01:31:31;8.60;77.30
52963;DHT22;38827;53.024;6.596;2023-04-09T01:34:17;8.60;77.30
52963;DHT22;38827;53.024;6.596;2023-04-09T01:36:51;8.60;77.50
52963;DHT22;38827;53.024;6.596;2023-04-09T01:39:43;8.60;77.60
52963;DHT22;38827;53.024;6.596;2023-04-09T01:42:15;8.70;77.50
52963;DHT22;38827;53.024;6.596;2023-04-09T01:44:44;8.70;77.70
52963;DHT22;38827;53.024;6.596;2023-04-09T01:47:11;8.70;77.70
52963;DHT22;38827;53.024;6.596;2023-04-09T01:49:39;8.70;77.70
52963;DHT22;38827;53.024;6.596;2023-04-09T01:52:11;8.70;77.80
52963;DHT22;38827;53.024;6.596;2023-04-09T01:54:47;8.70;77.90
52963;DHT22;38827;53.024;6.596;2023-04-09T01:57:35;8.70;77.80
52963;DHT22;38827;53.024;6.596;2023-04-09T02:00:09;8.70;77.80
52963;DHT22;38827;53.024;6.596;2023-04-09T02:06:21;8.70;77.80
52963;DHT22;38827;53.024;6.596;2023-04-09T02:09:03;8.70;77.70
52963;DHT22;38827;53.024;6.596;2023-04-09T02:12:06;8.60;78.00
52963;DHT22;38827;53.024;6.596;2023-04-09T02:14:50;8.60;77.90
52963;DHT22;38827;53.024;6.596;2023-04-09T02:17:43;8.60;78.10
52963;DHT22;38827;53.024;6.596;2023-04-09T02:20:23;8.60;78.30
52963;DHT22;38827;53.024;6.596;2023-04-09T02:22:57;8.60;78.30
52963;DHT22;38827;53.024;6.596;2023-04-09T02:26:02;8.60;78.30
52963;DHT22;38827;53.024;6.596;2023-04-09T02:28:42;8.60;78.30
52963;DHT22;38827;53.024;6.596;2023-04-09T02:31:16;8.60;78.00
52963;DHT22;38827;53.024;6.596;2023-04-09T02:33:52;8.60;78.30
52963;DHT22;38827;53.024;6.596;2023-04-09T02:36:26;8.60;78.30
52963;DHT22;38827;53.024;6.596;2023-04-09T02:38:57;8.60;78.40
52963;DHT22;38827;53.024;6.596;2023-04-09T02:41:51;8.60;78.40
52963;DHT22;38827;53.024;6.596;2023-04-09T02:44:25;8.60;78.60
52963;DHT22;38827;53.024;6.596;2023-04-09T02:47:02;8.60;78.60
52963;DHT22;38827;53.024;6.596;2023-04-09T02:49:42;8.60;78.60
52963;DHT22;38827;53.024;6.596;2023-04-09T02:52:13;8.60;78.60
52963;DHT22;38827;53.024;6.596;2023-04-09T02:54:52;8.70;78.60
52963;DHT22;38827;53.024;6.596;2023-04-09T02:57:25;8.60;78.50
52963;DHT22;38827;53.024;6.596;2023-04-09T03:00:02;8.60;78.60
52963;DHT22;38827;53.024;6.596;2023-04-09T03:02:46;8.60;78.50
52963;DHT22;38827;53.024;6.596;2023-04-09T03:05:28;8.60;78.60
52963;DHT22;38827;53.024;6.596;2023-04-09T03:08:07;8.60;78.60
52963;DHT22;38827;53.024;6.596;2023-04-09T03:10:51;8.60;78.60
52963;DHT22;38827;53.024;6.596;2023-04-09T03:13:54;8.60;78.70
52963;DHT22;38827;53.024;6.596;2023-04-09T03:16:37;8.50;78.80
52963;DHT22;38827;53.024;6.596;2023-04-09T03:19:23;8.50;78.90
52963;DHT22;38827;53.024;6.596;2023-04-09T03:22:05;8.50;79.00
52963;DHT22;38827;53.024;6.596;2023-04-09T03:24:34;8.60;78.90
52963;DHT22;38827;53.024;6.596;2023-04-09T03:27:16;8.50;79.00
52963;DHT22;38827;53.024;6.596;2023-04-09T03:30:08;8.60;78.90
52963;DHT22;38827;53.024;6.596;2023-04-09T03:32:39;8.60;78.90
52963;DHT22;38827;53.024;6.596;2023-04-09T03:35:13;8.60;79.00
52963;DHT22;38827;53.024;6.596;2023-04-09T03:37:47;8.60;79.00
52963;DHT22;38827;53.024;6.596;2023-04-09T03:40:26;8.60;79.00
52963;DHT22;38827;53.024;6.596;2023-04-09T03:43:00;8.60;79.00
52963;DHT22;38827;53.024;6.596;2023-04-09T03:45:37;8.60;79.00
52963;DHT22;38827;53.024;6.596;2023-04-09T03:48:18;8.60;79.10
52963;DHT22;38827;53.024;6.596;2023-04-09T03:53:55;8.60;79.10
52963;DHT22;38827;53.024;6.596;2023-04-09T03:56:32;8.60;79.10
52963;DHT22;38827;53.024;6.596;2023-04-09T03:59:30;8.60;79.20
52963;DHT22;38827;53.024;6.596;2023-04-09T04:02:04;8.60;79.00
52963;DHT22;38827;53.024;6.596;2023-04-09T04:04:45;8.60;79.10
52963;DHT22;38827;53.024;6.596;2023-04-09T04:07:33;8.60;79.00
52963;DHT22;38827;53.024;6.596;2023-04-09T04:10:19;8.60;79.10
52963;DHT22;38827;53.024;6.596;2023-04-09T04:13:14;8.60;79.20
52963;DHT22;38827;53.024;6.596;2023-04-09T04:15:43;8.60;79.00
52963;DHT22;38827;53.024;6.596;2023-04-09T04:18:11;8.50;79.30
52963;DHT22;38827;53.024;6.596;2023-04-09T04:20:38;8.50;79.30
52963;DHT22;38827;53.024;6.596;2023-04-09T04:23:06;8.50;79.40
52963;DHT22;38827;53.024;6.596;2023-04-09T04:25:34;8.60;79.30
52963;DHT22;38827;53.024;6.596;2023-04-09T04:28:35;8.50;79.40
52963;DHT22;38827;53.024;6.596;2023-04-09T04:31:15;8.50;79.40
52963;DHT22;38827;53.024;6.596;2023-04-09T04:34:12;8.50;79.40
52963;DHT22;38827;53.024;6.596;2023-04-09T04:36:43;8.50;79.30
52963;DHT22;38827;53.024;6.596;2023-04-09T04:39:26;8.50;79.70
52963;DHT22;38827;53.024;6.596;2023-04-09T04:42:00;8.50;79.60
52963;DHT22;38827;53.024;6.596;2023-04-09T04:45:00;8.50;79.70
52963;DHT22;38827;53.024;6.596;2023-04-09T04:47:54;8.50;79.60
52963;DHT22;38827;53.024;6.596;2023-04-09T04:51:17;8.50;79.60
52963;DHT22;38827;53.024;6.596;2023-04-09T04:53:54;8.40;79.10
52963;DHT22;38827;53.024;6.596;2023-04-09T04:56:34;8.40;79.00
52963;DHT22;38827;53.024;6.596;2023-04-09T04:59:23;8.40;78.40
52963;DHT22;38827;53.024;6.596;2023-04-09T05:02:03;8.30;78.20
52963;DHT22;38827;53.024;6.596;2023-04-09T05:04:40;8.40;78.00
52963;DHT22;38827;53.024;6.596;2023-04-09T05:07:21;8.40;77.70
52963;DHT22;38827;53.024;6.596;2023-04-09T05:09:57;8.40;77.40
52963;DHT22;38827;53.024;6.596;2023-04-09T05:12:26;8.40;77.10
52963;DHT22;38827;53.024;6.596;2023-04-09T05:15:14;8.40;77.20
52963;DHT22;38827;53.024;6.596;2023-04-09T05:17:44;8.40;77.20
52963;DHT22;38827;53.024;6.596;2023-04-09T05:20:18;8.50;77.20
52963;DHT22;38827;53.024;6.596;2023-04-09T05:22:49;8.50;77.30
52963;DHT22;38827;53.024;6.596;2023-04-09T05:25:28;8.50;77.30
52963;DHT22;38827;53.024;6.596;2023-04-09T05:28:08;8.50;77.30
52963;DHT22;38827;53.024;6.596;2023-04-09T05:30:40;8.50;77.30
52963;DHT22;38827;53.024;6.596;2023-04-09T05:33:25;8.50;77.40
52963;DHT22;38827;53.024;6.596;2023-04-09T05:36:17;8.50;77.40
52963;DHT22;38827;53.024;6.596;2023-04-09T05:39:02;8.50;77.40
52963;DHT22;38827;53.024;6.596;2023-04-09T05:41:51;8.50;77.50
52963;DHT22;38827;53.024;6.596;2023-04-09T05:44:23;8.50;77.50
52963;DHT22;38827;53.024;6.596;2023-04-09T05:47:14;8.60;77.60
52963;DHT22;38827;53.024;6.596;2023-04-09T05:49:54;8.60;77.60
52963;DHT22;38827;53.024;6.596;2023-04-09T05:52:27;8.60;77.60
52963;DHT22;38827;53.024;6.596;2023-04-09T05:54:56;8.50;77.30
52963;DHT22;38827;53.024;6.596;2023-04-09T05:57:26;8.50;76.80
52963;DHT22;38827;53.024;6.596;2023-04-09T05:59:55;8.50;76.70
52963;DHT22;38827;53.024;6.596;2023-04-09T06:02:20;8.50;76.60
52963;DHT22;38827;53.024;6.596;2023-04-09T06:04:46;8.50;76.70
52963;DHT22;38827;53.024;6.596;2023-04-09T06:07:12;8.60;76.90
52963;DHT22;38827;53.024;6.596;2023-04-09T06:09:37;8.60;76.70
52963;DHT22;38827;53.024;6.596;2023-04-09T06:12:03;8.60;76.60
52963;DHT22;38827;53.024;6.596;2023-04-09T06:14:34;8.60;76.60
52963;DHT22;38827;53.024;6.596;2023-04-09T06:17:00;8.60;76.60
52963;DHT22;38827;53.024;6.596;2023-04-09T06:19:28;8.60;76.90
52963;DHT22;38827;53.024;6.596;2023-04-09T06:21:58;8.60;77.00
52963;DHT22;38827;53.024;6.596;2023-04-09T06:24:26;8.70;77.20
52963;DHT22;38827;53.024;6.596;2023-04-09T06:26:52;8.70;77.00
52963;DHT22;38827;53.024;6.596;2023-04-09T06:29:17;8.70;76.80
52963;DHT22;38827;53.024;6.596;2023-04-09T06:31:43;8.70;76.60
52963;DHT22;38827;53.024;6.596;2023-04-09T06:34:10;8.70;76.30
52963;DHT22;38827;53.024;6.596;2023-04-09T06:36:39;8.70;76.00
52963;DHT22;38827;53.024;6.596;2023-04-09T06:39:05;8.70;75.30
52963;DHT22;38827;53.024;6.596;2023-04-09T06:41:34;8.70;75.00
52963;DHT22;38827;53.024;6.596;2023-04-09T06:44:00;8.70;74.70
52963;DHT22;38827;53.024;6.596;2023-04-09T06:46:30;8.80;74.50
52963;DHT22;38827;53.024;6.596;2023-04-09T06:48:55;8.80;74.40
52963;DHT22;38827;53.024;6.596;2023-04-09T06:51:21;8.90;74.00
52963;DHT22;38827;53.024;6.596;2023-04-09T06:53:53;8.90;73.60
52963;DHT22;38827;53.024;6.596;2023-04-09T06:56:21;8.90;73.50
52963;DHT22;38827;53.024;6.596;2023-04-09T06:58:47;8.90;73.30
52963;DHT22;38827;53.024;6.596;2023-04-09T07:01:14;8.90;73.10
52963;DHT22;38827;53.024;6.596;2023-04-09T07:03:41;9.00;73.00
52963;DHT22;38827;53.024;6.596;2023-04-09T07:06:41;9.00;73.10
52963;DHT22;38827;53.024;6.596;2023-04-09T07:09:19;9.10;72.80
52963;DHT22;38827;53.024;6.596;2023-04-09T07:11:50;9.20;73.20
52963;DHT22;38827;53.024;6.596;2023-04-09T07:14:45;9.30;73.10
52963;DHT22;38827;53.024;6.596;2023-04-09T07:17:31;9.40;73.00
52963;DHT22;38827;53.024;6.596;2023-04-09T07:23:02;9.50;72.20
52963;DHT22;38827;53.024;6.596;2023-04-09T07:25:44;9.50;72.20
52963;DHT22;38827;53.024;6.596;2023-04-09T07:28:23;9.60;71.80
52963;DHT22;38827;53.024;6.596;2023-04-09T07:30:51;9.60;71.50
52963;DHT22;38827;53.024;6.596;2023-04-09T07:33:33;9.70;71.50
52963;DHT22;38827;53.024;6.596;2023-04-09T07:39:58;9.70;71.30
52963;DHT22;38827;53.024;6.596;2023-04-09T07:42:29;9.80;71.40
52963;DHT22;38827;53.024;6.596;2023-04-09T07:45:30;9.80;71.30
52963;DHT22;38827;53.024;6.596;2023-04-09T07:48:01;9.80;70.90
52963;DHT22;38827;53.024;6.596;2023-04-09T07:50:35;9.90;71.10
52963;DHT22;38827;53.024;6.596;2023-04-09T07:53:34;9.90;70.80
52963;DHT22;38827;53.024;6.596;2023-04-09T07:56:19;10.00;71.10
52963;DHT22;38827;53.024;6.596;2023-04-09T07:59:07;10.20;70.20
52963;DHT22;38827;53.024;6.596;2023-04-09T08:01:47;10.30;69.80
52963;DHT22;38827;53.024;6.596;2023-04-09T08:04:32;10.40;69.70
52963;DHT22;38827;53.024;6.596;2023-04-09T08:07:19;10.80;68.80
52963;DHT22;38827;53.024;6.596;2023-04-09T08:09:53;11.50;67.30
52963;DHT22;38827;53.024;6.596;2023-04-09T08:12:22;12.20;64.70
52963;DHT22;38827;53.024;6.596;2023-04-09T08:14:48;12.40;63.40
52963;DHT22;38827;53.024;6.596;2023-04-09T08:17:13;12.40;64.60
52963;DHT22;38827;53.024;6.596;2023-04-09T08:19:39;12.40;64.30
52963;DHT22;38827;53.024;6.596;2023-04-09T08:22:05;12.40;63.90
52963;DHT22;38827;53.024;6.596;2023-04-09T08:24:31;12.30;64.00
52963;DHT22;38827;53.024;6.596;2023-04-09T08:26:56;12.60;63.60
52963;DHT22;38827;53.024;6.596;2023-04-09T08:29:26;12.80;63.10
52963;DHT22;38827;53.024;6.596;2023-04-09T08:31:52;13.10;62.90
52963;DHT22;38827;53.024;6.596;2023-04-09T08:34:17;13.60;61.30
52963;DHT22;38827;53.024;6.596;2023-04-09T08:36:45;14.00;59.80
52963;DHT22;38827;53.024;6.596;2023-04-09T08:39:15;14.40;57.90
52963;DHT22;38827;53.024;6.596;2023-04-09T08:41:44;14.60;57.30
52963;DHT22;38827;53.024;6.596;2023-04-09T08:44:10;15.30;56.40
52963;DHT22;38827;53.024;6.596;2023-04-09T08:46:36;15.70;54.70
52963;DHT22;38827;53.024;6.596;2023-04-09T08:49:02;15.90;53.90
52963;DHT22;38827;53.024;6.596;2023-04-09T08:51:27;16.40;52.60
52963;DHT22;38827;53.024;6.596;2023-04-09T08:53:59;16.30;52.50
52963;DHT22;38827;53.024;6.596;2023-04-09T08:56:30;16.40;51.90
52963;DHT22;38827;53.024;6.596;2023-04-09T08:58:56;16.30;51.90
52963;DHT22;38827;53.024;6.596;2023-04-09T09:01:28;16.20;52.00
52963;DHT22;38827;53.024;6.596;2023-04-09T09:06:27;15.70;52.50
52963;DHT22;38827;53.024;6.596;2023-04-09T09:11:40;15.30;52.20
52963;DHT22;38827;53.024;6.596;2023-04-09T09:14:10;15.00;53.20
52963;DHT22;38827;53.024;6.596;2023-04-09T09:16:40;14.70;53.90
52963;DHT22;38827;53.024;6.596;2023-04-09T09:19:28;14.40;54.40
52963;DHT22;38827;53.024;6.596;2023-04-09T09:21:55;14.30;54.40
52963;DHT22;38827;53.024;6.596;2023-04-09T09:24:21;14.40;55.00
52963;DHT22;38827;53.024;6.596;2023-04-09T09:26:47;14.30;54.20
52963;DHT22;38827;53.024;6.596;2023-04-09T09:29:15;14.10;55.80
52963;DHT22;38827;53.024;6.596;2023-04-09T09:31:49;14.00;56.20
52963;DHT22;38827;53.024;6.596;2023-04-09T09:34:17;14.00;56.30
52963;DHT22;38827;53.024;6.596;2023-04-09T09:36:43;13.90;56.20
52963;DHT22;38827;53.024;6.596;2023-04-09T09:39:10;13.80;56.20
52963;DHT22;38827;53.024;6.596;2023-04-09T09:41:38;13.80;56.40
52963;DHT22;38827;53.024;6.596;2023-04-09T09:44:05;13.70;56.50
52963;DHT22;38827;53.024;6.596;2023-04-09T09:46:39;13.70;56.50
52963;DHT22;38827;53.024;6.596;2023-04-09T09:49:06;13.70;56.50
52963;DHT22;38827;53.024;6.596;2023-04-09T09:51:36;13.80;56.60
52963;DHT22;38827;53.024;6.596;2023-04-09T09:54:08;13.90;56.50
52963;DHT22;38827;53.024;6.596;2023-04-09T09:56:41;13.90;56.50
52963;DHT22;38827;53.024;6.596;2023-04-09T09:59:20;14.00;56.50
52963;DHT22;38827;53.024;6.596;2023-04-09T10:01:47;14.80;55.20
52963;DHT22;38827;53.024;6.596;2023-04-09T10:04:15;15.20;54.40
52963;DHT22;38827;53.024;6.596;2023-04-09T10:06:44;15.20;54.10
52963;DHT22;38827;53.024;6.596;2023-04-09T10:09:10;15.10;54.10
52963;DHT22;38827;53.024;6.596;2023-04-09T10:11:37;15.00;54.40
52963;DHT22;38827;53.024;6.596;2023-04-09T10:14:03;14.90;54.80
52963;DHT22;38827;53.024;6.596;2023-04-09T10:16:32;15.00;55.60
52963;DHT22;38827;53.024;6.596;2023-04-09T10:18:58;15.20;54.50
52963;DHT22;38827;53.024;6.596;2023-04-09T10:23:53;15.50;52.30
52963;DHT22;38827;53.024;6.596;2023-04-09T10:26:20;15.40;53.90
52963;DHT22;38827;53.024;6.596;2023-04-09T10:28:46;15.50;53.80
52963;DHT22;38827;53.024;6.596;2023-04-09T10:32:08;15.50;53.70
52963;DHT22;38827;53.024;6.596;2023-04-09T10:34:41;15.60;52.80
52963;DHT22;38827;53.024;6.596;2023-04-09T10:37:13;15.70;52.70
52963;DHT22;38827;53.024;6.596;2023-04-09T10:39:47;15.70;52.80
52963;DHT22;38827;53.024;6.596;2023-04-09T10:42:38;15.90;52.80
52963;DHT22;38827;53.024;6.596;2023-04-09T10:45:10;16.40;51.50
52963;DHT22;38827;53.024;6.596;2023-04-09T10:47:39;16.50;51.20
52963;DHT22;38827;53.024;6.596;2023-04-09T10:50:21;16.90;50.90
52963;DHT22;38827;53.024;6.596;2023-04-09T10:52:53;17.80;49.40
52963;DHT22;38827;53.024;6.596;2023-04-09T10:55:38;18.60;47.90
52963;DHT22;38827;53.024;6.596;2023-04-09T10:58:08;19.90;45.40
52963;DHT22;38827;53.024;6.596;2023-04-09T11:00:39;20.30;44.60
52963;DHT22;38827;53.024;6.596;2023-04-09T11:03:27;20.30;44.40
52963;DHT22;38827;53.024;6.596;2023-04-09T11:06:03;20.20;44.20
52963;DHT22;38827;53.024;6.596;2023-04-09T11:08:35;19.90;44.20
52963;DHT22;38827;53.024;6.596;2023-04-09T11:11:03;19.80;44.70
52963;DHT22;38827;53.024;6.596;2023-04-09T11:13:30;20.40;43.80
52963;DHT22;38827;53.024;6.596;2023-04-09T11:15:57;21.20;42.20
52963;DHT22;38827;53.024;6.596;2023-04-09T11:18:28;21.10;41.90
52963;DHT22;38827;53.024;6.596;2023-04-09T11:21:01;20.60;41.90
52963;DHT22;38827;53.024;6.596;2023-04-09T11:23:35;20.10;42.80
52963;DHT22;38827;53.024;6.596;2023-04-09T11:26:01;20.00;44.10
52963;DHT22;38827;53.024;6.596;2023-04-09T11:28:27;20.90;43.00
52963;DHT22;38827;53.024;6.596;2023-04-09T11:30:53;21.90;41.50
52963;DHT22;38827;53.024;6.596;2023-04-09T11:33:19;22.90;40.30
52963;DHT22;38827;53.024;6.596;2023-04-09T11:35:44;23.70;38.80
52963;DHT22;38827;53.024;6.596;2023-04-09T11:38:11;24.50;38.00
52963;DHT22;38827;53.024;6.596;2023-04-09T11:40:40;25.00;36.80
52963;DHT22;38827;53.024;6.596;2023-04-09T11:43:17;25.00;36.40
52963;DHT22;38827;53.024;6.596;2023-04-09T11:45:45;25.20;35.70
52963;DHT22;38827;53.024;6.596;2023-04-09T11:48:16;25.10;35.30
52963;DHT22;38827;53.024;6.596;2023-04-09T11:50:49;25.20;35.70
52963;DHT22;38827;53.024;6.596;2023-04-09T11:53:19;25.60;35.10
52963;DHT22;38827;53.024;6.596;2023-04-09T11:55:49;25.90;34.70
52963;DHT22;38827;53.024;6.596;2023-04-09T11:58:23;26.00;34.30
52963;DHT22;38827;53.024;6.596;2023-04-09T12:00:58;26.40;33.90
52963;DHT22;38827;53.024;6.596;2023-04-09T12:03:28;26.80;33.80
52963;DHT22;38827;53.024;6.596;2023-04-09T12:05:55;27.20;32.80
52963;DHT22;38827;53.024;6.596;2023-04-09T12:08:23;27.20;32.30
52963;DHT22;38827;53.024;6.596;2023-04-09T12:10:49;27.20;32.00
52963;DHT22;38827;53.024;6.596;2023-04-09T12:13:16;26.90;32.30
52963;DHT22;38827;53.024;6.596;2023-04-09T12:15:42;26.60;32.20
52963;DHT22;38827;53.024;6.596;2023-04-09T12:18:11;26.50;32.30
52963;DHT22;38827;53.024;6.596;2023-04-09T12:20:45;26.70;32.30
52963;DHT22;38827;53.024;6.596;2023-04-09T12:23:19;26.70;31.70
52963;DHT22;38827;53.024;6.596;2023-04-09T12:25:45;26.00;32.70
52963;DHT22;38827;53.024;6.596;2023-04-09T12:28:16;25.70;33.10
52963;DHT22;38827;53.024;6.596;2023-04-09T12:30:54;25.80;32.60
52963;DHT22;38827;53.024;6.596;2023-04-09T12:33:31;25.90;32.40
52963;DHT22;38827;53.024;6.596;2023-04-09T12:36:08;25.60;32.30
52963;DHT22;38827;53.024;6.596;2023-04-09T12:38:36;25.40;32.80
52963;DHT22;38827;53.024;6.596;2023-04-09T12:41:04;25.80;32.30
52963;DHT22;38827;53.024;6.596;2023-04-09T12:43:40;26.20;31.70
52963;DHT22;38827;53.024;6.596;2023-04-09T12:46:09;26.60;31.40
52963;DHT22;38827;53.024;6.596;2023-04-09T12:48:35;27.10;30.90
52963;DHT22;38827;53.024;6.596;2023-04-09T12:51:03;27.20;30.30
52963;DHT22;38827;53.024;6.596;2023-04-09T12:53:37;27.20;30.40
52963;DHT22;38827;53.024;6.596;2023-04-09T12:56:09;27.00;30.60
52963;DHT22;38827;53.024;6.596;2023-04-09T12:58:42;26.20;31.10
52963;DHT22;38827;53.024;6.596;2023-04-09T13:01:14;26.20;31.40
52963;DHT22;38827;53.024;6.596;2023-04-09T13:03:39;26.70;31.20
52963;DHT22;38827;53.024;6.596;2023-04-09T13:06:10;27.30;30.50
52963;DHT22;38827;53.024;6.596;2023-04-09T13:08:42;27.30;30.00
52963;DHT22;38827;53.024;6.596;2023-04-09T13:11:08;27.40;29.60
52963;DHT22;38827;53.024;6.596;2023-04-09T13:13:39;27.50;30.20
52963;DHT22;38827;53.024;6.596;2023-04-09T13:16:18;27.60;30.30
52963;DHT22;38827;53.024;6.596;2023-04-09T13:18:49;27.30;29.60
52963;DHT22;38827;53.024;6.596;2023-04-09T13:21:18;27.20;29.30
52963;DHT22;38827;53.024;6.596;2023-04-09T13:23:52;27.20;29.40
52963;DHT22;38827;53.024;6.596;2023-04-09T13:26:26;27.10;29.30
52963;DHT22;38827;53.024;6.596;2023-04-09T13:28:54;26.80;29.40
52963;DHT22;38827;53.024;6.596;2023-04-09T13:31:23;26.00;30.50
52963;DHT22;38827;53.024;6.596;2023-04-09T13:33:52;25.80;31.20
52963;DHT22;38827;53.024;6.596;2023-04-09T13:36:26;26.10;30.90
52963;DHT22;38827;53.024;6.596;2023-04-09T13:38:52;26.50;29.80
52963;DHT22;38827;53.024;6.596;2023-04-09T13:41:18;26.50;29.70
52963;DHT22;38827;53.024;6.596;2023-04-09T13:43:47;26.40;30.00
52963;DHT22;38827;53.024;6.596;2023-04-09T13:46:15;26.40;30.20
52963;DHT22;38827;53.024;6.596;2023-04-09T13:48:43;26.50;30.40
52963;DHT22;38827;53.024;6.596;2023-04-09T13:51:17;26.40;30.40
52963;DHT22;38827;53.024;6.596;2023-04-09T13:53:56;25.80;30.60
52963;DHT22;38827;53.024;6.596;2023-04-09T13:56:29;24.90;31.00
52963;DHT22;38827;53.024;6.596;2023-04-09T13:58:58;24.00;32.30
52963;DHT22;38827;53.024;6.596;2023-04-09T14:01:39;24.00;32.00
52963;DHT22;38827;53.024;6.596;2023-04-09T14:04:05;24.30;32.00
52963;DHT22;38827;53.024;6.596;2023-04-09T14:06:30;24.60;31.90
52963;DHT22;38827;53.024;6.596;2023-04-09T14:08:56;24.90;31.30
52963;DHT22;38827;53.024;6.596;2023-04-09T14:11:22;25.10;31.30
52963;DHT22;38827;53.024;6.596;2023-04-09T14:13:47;25.40;30.90
52963;DHT22;38827;53.024;6.596;2023-04-09T14:16:13;25.60;30.70
52963;DHT22;38827;53.024;6.596;2023-04-09T14:18:39;25.70;30.20
52963;DHT22;38827;53.024;6.596;2023-04-09T14:21:05;25.70;30.20
52963;DHT22;38827;53.024;6.596;2023-04-09T14:23:31;25.70;30.60
52963;DHT22;38827;53.024;6.596;2023-04-09T14:25:57;25.80;30.10
52963;DHT22;38827;53.024;6.596;2023-04-09T14:28:22;25.70;30.10
52963;DHT22;38827;53.024;6.596;2023-04-09T14:30:48;25.60;30.20
52963;DHT22;38827;53.024;6.596;2023-04-09T14:33:14;25.50;30.20
52963;DHT22;38827;53.024;6.596;2023-04-09T14:35:39;25.40;30.20
52963;DHT22;38827;53.024;6.596;2023-04-09T14:38:07;25.50;30.00
52963;DHT22;38827;53.024;6.596;2023-04-09T14:40:35;25.70;29.70
52963;DHT22;38827;53.024;6.596;2023-04-09T14:43:01;26.00;29.80
52963;DHT22;38827;53.024;6.596;2023-04-09T14:45:26;26.10;29.60
52963;DHT22;38827;53.024;6.596;2023-04-09T14:47:52;26.20;29.30
52963;DHT22;38827;53.024;6.596;2023-04-09T14:50:19;26.10;29.30
52963;DHT22;38827;53.024;6.596;2023-04-09T14:52:45;26.10;29.40
52963;DHT22;38827;53.024;6.596;2023-04-09T14:55:12;25.90;29.60
52963;DHT22;38827;53.024;6.596;2023-04-09T14:57:38;25.70;30.10
52963;DHT22;38827;53.024;6.596;2023-04-09T15:00:09;25.30;30.10
52963;DHT22;38827;53.024;6.596;2023-04-09T15:02:37;24.90;30.50
52963;DHT22;38827;53.024;6.596;2023-04-09T15:05:04;24.60;30.90
52963;DHT22;38827;53.024;6.596;2023-04-09T15:07:30;24.60;30.70
52963;DHT22;38827;53.024;6.596;2023-04-09T15:09:56;24.60;30.30
52963;DHT22;38827;53.024;6.596;2023-04-09T15:12:25;24.40;30.30
52963;DHT22;38827;53.024;6.596;2023-04-09T15:14:51;24.40;30.50
52963;DHT22;38827;53.024;6.596;2023-04-09T15:17:21;24.60;30.20
52963;DHT22;38827;53.024;6.596;2023-04-09T15:19:52;24.80;30.00
52963;DHT22;38827;53.024;6.596;2023-04-09T15:22:18;24.80;29.70
52963;DHT22;38827;53.024;6.596;2023-04-09T15:24:44;24.80;29.60
52963;DHT22;38827;53.024;6.596;2023-04-09T15:27:10;24.70;30.30
52963;DHT22;38827;53.024;6.596;2023-04-09T15:29:36;24.60;30.90
52963;DHT22;38827;53.024;6.596;2023-04-09T15:32:04;24.50;31.10
52963;DHT22;38827;53.024;6.596;2023-04-09T15:34:30;24.40;31.20
52963;DHT22;38827;53.024;6.596;2023-04-09T15:36:56;24.10;31.10
52963;DHT22;38827;53.024;6.596;2023-04-09T15:39:22;23.70;31.30
52963;DHT22;38827;53.024;6.596;2023-04-09T15:41:49;23.30;31.90
52963;DHT22;38827;53.024;6.596;2023-04-09T15:44:15;23.00;32.20
52963;DHT22;38827;53.024;6.596;2023-04-09T15:46:41;22.60;32.80
52963;DHT22;38827;53.024;6.596;2023-04-09T15:49:07;22.10;33.30
52963;DHT22;38827;53.024;6.596;2023-04-09T15:51:33;21.50;34.00
52963;DHT22;38827;53.024;6.596;2023-04-09T15:53:58;21.10;34.40
52963;DHT22;38827;53.024;6.596;2023-04-09T15:56:24;20.60;34.40
52963;DHT22;38827;53.024;6.596;2023-04-09T15:58:50;20.10;34.90
52963;DHT22;38827;53.024;6.596;2023-04-09T16:01:15;19.70;35.50
52963;DHT22;38827;53.024;6.596;2023-04-09T16:03:43;19.30;36.30
52963;DHT22;38827;53.024;6.596;2023-04-09T16:06:10;19.00;36.90
52963;DHT22;38827;53.024;6.596;2023-04-09T16:08:43;18.80;37.20
52963;DHT22;38827;53.024;6.596;2023-04-09T16:11:13;18.70;37.40
52963;DHT22;38827;53.024;6.596;2023-04-09T16:13:39;18.70;37.30
52963;DHT22;38827;53.024;6.596;2023-04-09T16:16:05;18.50;36.70
52963;DHT22;38827;53.024;6.596;2023-04-09T16:18:32;18.40;36.90
52963;DHT22;38827;53.024;6.596;2023-04-09T16:20:58;18.30;37.40
52963;DHT22;38827;53.024;6.596;2023-04-09T16:23:25;18.20;37.40
52963;DHT22;38827;53.024;6.596;2023-04-09T16:25:51;18.00;37.60
52963;DHT22;38827;53.024;6.596;2023-04-09T16:28:20;17.80;38.40
52963;DHT22;38827;53.024;6.596;2023-04-09T16:30:51;17.60;38.60
52963;DHT22;38827;53.024;6.596;2023-04-09T16:33:17;17.40;38.60
52963;DHT22;38827;53.024;6.596;2023-04-09T16:35:44;17.20;38.60
52963;DHT22;38827;53.024;6.596;2023-04-09T16:38:09;17.10;39.00
52963;DHT22;38827;53.024;6.596;2023-04-09T16:40:35;17.00;39.50
52963;DHT22;38827;53.024;6.596;2023-04-09T16:43:01;16.80;39.30
52963;DHT22;38827;53.024;6.596;2023-04-09T16:45:27;16.70;39.20
52963;DHT22;38827;53.024;6.596;2023-04-09T16:48:01;16.70;39.40